Time;durP1;ratioP1;P1;durP2;ratioP2;P2;SDS_P1;SDS_P2;PMS_P1;PMS_P2;Temp;Humidity;BMP_temperature;BMP_pressure;BME280_temperature;BME280_humidity;BME280_pressure;Samples;Min_cycle;Max_cycle;Signal;HPM_P1;HPM_P2
2023/12/11 00:01:07;;;;;;;2.42;0.70;;;8.60;99.90;;;;;;4912035;29;20123;-65
2023/12/11 00:03:33;;;;;;;2.83;0.60;;;8.60;99.90;;;;;;4913805;29;20032;-65
2023/12/11 00:05:59;;;;;;;2.10;0.50;;;8.60;99.90;;;;;;4912816;29;20029;-65
2023/12/11 00:08:24;;;;;;;2.95;0.93;;;8.60;99.90;;;;;;4913689;29;20032;-65
2023/12/11 00:10:50;;;;;;;3.30;0.50;;;8.60;99.90;;;;;;4913280;29;20167;-66
2023/12/11 00:13:16;;;;;;;3.00;0.80;;;8.50;99.90;;;;;;4913343;29;20406;-65
2023/12/11 00:15:41;;;;;;;1.20;0.50;;;8.50;99.90;;;;;;4913766;29;20044;-66
2023/12/11 00:18:07;;;;;;;2.83;1.08;;;8.50;99.90;;;;;;4912735;29;20787;-65
2023/12/11 00:20:33;;;;;;;1.25;0.60;;;8.50;99.90;;;;;;4913572;29;20024;-65
2023/12/11 00:22:59;;;;;;;1.02;0.57;;;8.40;99.90;;;;;;4911931;29;20040;-66
2023/12/11 00:25:25;;;;;;;2.03;0.60;;;8.40;99.90;;;;;;4914105;29;20040;-65
2023/12/11 00:27:52;;;;;;;3.25;0.73;;;8.40;99.90;;;;;;4912596;29;20032;-66
2023/12/11 00:30:17;;;;;;;1.55;0.52;;;8.40;99.90;;;;;;4913583;29;20470;-65
2023/12/11 00:32:43;;;;;;;1.83;0.40;;;8.30;99.90;;;;;;4913073;29;20067;-66
2023/12/11 00:35:09;;;;;;;3.83;0.65;;;8.40;99.90;;;;;;4913208;29;20477;-65
2023/12/11 00:37:34;;;;;;;2.83;0.70;;;8.40;99.90;;;;;;4912889;29;20390;-65
2023/12/11 00:40:00;;;;;;;2.47;0.40;;;8.50;99.90;;;;;;4913092;29;20099;-65
2023/12/11 00:42:25;;;;;;;4.93;0.55;;;8.60;99.90;;;;;;4913645;29;20032;-66
2023/12/11 00:44:51;;;;;;;1.70;0.68;;;8.60;99.90;;;;;;4913248;29;20029;-66
2023/12/11 00:47:17;;;;;;;1.92;0.60;;;8.60;99.90;;;;;;4913687;29;20035;-65
2023/12/11 00:49:42;;;;;;;1.42;0.40;;;8.60;99.90;;;;;;4914270;29;20029;-65
2023/12/11 00:52:08;;;;;;;1.83;0.80;;;8.70;99.90;;;;;;4912232;29;20136;-65
2023/12/11 00:54:33;;;;;;;1.52;0.43;;;8.70;99.90;;;;;;4913196;29;20070;-66
2023/12/11 00:56:59;;;;;;;1.85;0.60;;;8.70;99.90;;;;;;4912909;29;20103;-65
2023/12/11 00:59:25;;;;;;;2.22;0.75;;;8.80;99.90;;;;;;4913862;29;20116;-65
2023/12/11 01:01:50;;;;;;;1.45;0.47;;;8.90;99.90;;;;;;4912906;29;20032;-66
2023/12/11 01:04:16;;;;;;;1.55;0.43;;;8.80;99.90;;;;;;4913819;29;20119;-65
2023/12/11 01:06:42;;;;;;;2.20;0.40;;;8.90;99.90;;;;;;4913349;29;20100;-65
2023/12/11 01:09:07;;;;;;;0.57;0.30;;;8.80;99.90;;;;;;4913270;29;20032;-65
2023/12/11 01:11:33;;;;;;;0.73;0.40;;;8.80;99.90;;;;;;4914390;29;20039;-65
2023/12/11 01:13:59;;;;;;;1.95;0.70;;;8.80;99.90;;;;;;4916212;29;20040;-65
2023/12/11 01:16:24;;;;;;;1.33;0.50;;;8.80;99.90;;;;;;4916912;29;20029;-66
2023/12/11 01:18:50;;;;;;;1.35;0.25;;;8.80;99.90;;;;;;4916038;29;20036;-67
2023/12/11 01:21:16;;;;;;;1.10;0.50;;;8.80;99.90;;;;;;4916770;29;20028;-65
2023/12/11 01:23:42;;;;;;;0.85;0.50;;;8.70;99.90;;;;;;4916818;29;20039;-65
2023/12/11 01:26:08;;;;;;;0.55;0.30;;;8.70;99.90;;;;;;4916383;29;20484;-65
2023/12/11 01:28:34;;;;;;;2.17;0.85;;;8.80;99.90;;;;;;4906198;29;20119;-66
2023/12/11 01:31:00;;;;;;;1.05;0.43;;;8.90;99.90;;;;;;4898847;29;20522;-65
2023/12/11 01:33:26;;;;;;;1.13;0.32;;;8.80;99.90;;;;;;4916482;29;20036;-65
2023/12/11 01:35:51;;;;;;;1.10;0.47;;;8.80;99.90;;;;;;4916145;29;20032;-66
2023/12/11 01:38:17;;;;;;;0.45;0.30;;;8.80;99.90;;;;;;4916083;29;20052;-66
2023/12/11 01:40:43;;;;;;;1.67;0.82;;;8.80;99.90;;;;;;4916407;29;20032;-65
2023/12/11 01:43:14;;;;;;;1.27;0.40;;;8.90;99.90;;;;;;4915423;29;20147;-66
2023/12/11 01:45:40;;;;;;;0.60;0.22;;;8.90;99.90;;;;;;4916160;29;20090;-65
2023/12/11 01:48:10;;;;;;;1.55;0.38;;;8.90;99.90;;;;;;4915531;29;20052;-65
2023/12/11 01:50:37;;;;;;;0.93;0.38;;;8.90;99.90;;;;;;4916425;29;20035;-66
2023/12/11 01:53:03;;;;;;;1.10;0.20;;;8.90;99.90;;;;;;4914854;29;20032;-65
2023/12/11 01:55:31;;;;;;;0.68;0.20;;;8.90;99.90;;;;;;4916459;29;20032;-65
2023/12/11 01:57:58;;;;;;;0.77;0.20;;;9.00;99.90;;;;;;4915528;29;20033;-65
2023/12/11 02:00:24;;;;;;;1.20;0.35;;;9.00;99.90;;;;;;4916811;29;20028;-65
2023/12/11 02:02:51;;;;;;;2.72;0.30;;;9.00;99.90;;;;;;4916310;29;20040;-65
2023/12/11 02:05:17;;;;;;;1.90;0.30;;;9.00;99.90;;;;;;4916134;29;20032;-65
2023/12/11 02:07:43;;;;;;;0.85;0.40;;;9.10;99.90;;;;;;4916324;29;20028;-65
2023/12/11 02:10:09;;;;;;;1.50;0.40;;;9.00;99.90;;;;;;4916074;29;20028;-64
2023/12/11 02:12:35;;;;;;;1.55;0.50;;;9.00;99.90;;;;;;4915730;29;20039;-67
2023/12/11 02:15:01;;;;;;;1.02;0.52;;;9.00;99.90;;;;;;4915654;29;20020;-65
2023/12/11 02:17:26;;;;;;;0.88;0.57;;;8.90;99.90;;;;;;4915209;29;20051;-65
2023/12/11 02:19:52;;;;;;;1.25;0.50;;;8.90;99.90;;;;;;4914976;29;20036;-65
2023/12/11 02:22:18;;;;;;;0.43;0.30;;;8.90;99.90;;;;;;4915465;29;20028;-65
2023/12/11 02:24:51;;;;;;;0.47;0.30;;;9.00;99.90;;;;;;4915166;29;20051;-65
2023/12/11 02:27:17;;;;;;;1.17;0.38;;;9.00;99.90;;;;;;4915349;29;20428;-65
2023/12/11 02:29:43;;;;;;;0.28;0.20;;;9.10;99.90;;;;;;4915447;29;20059;-65
2023/12/11 02:32:08;;;;;;;0.95;0.40;;;9.20;99.90;;;;;;4914328;29;20604;-65
2023/12/11 02:34:34;;;;;;;0.88;0.20;;;9.20;99.90;;;;;;4915278;29;20032;-65
2023/12/11 02:37:00;;;;;;;0.80;0.20;;;9.20;99.90;;;;;;4914508;29;20378;-65
2023/12/11 02:39:26;;;;;;;0.85;0.20;;;9.20;99.90;;;;;;4914861;29;20226;-65
2023/12/11 02:41:52;;;;;;;0.47;0.10;;;9.20;99.90;;;;;;4914844;29;20126;-66
2023/12/11 02:44:17;;;;;;;0.20;0.10;;;9.10;99.90;;;;;;4915339;29;20123;-65
2023/12/11 02:46:43;;;;;;;1.10;0.20;;;9.10;99.90;;;;;;4914874;29;20059;-65
2023/12/11 02:49:08;;;;;;;0.10;0.03;;;9.10;99.90;;;;;;4914967;29;20039;-65
2023/12/11 02:51:34;;;;;;;0.20;0.10;;;9.00;99.90;;;;;;4914588;29;20024;-65
2023/12/11 02:54:00;;;;;;;1.13;0.20;;;9.10;99.90;;;;;;4914545;29;20059;-66
2023/12/11 02:56:25;;;;;;;2.55;0.45;;;9.10;99.90;;;;;;4914411;29;20048;-66
2023/12/11 02:58:51;;;;;;;0.63;0.10;;;9.10;99.90;;;;;;4914686;29;20100;-67
2023/12/11 03:01:16;;;;;;;1.48;0.32;;;9.10;99.90;;;;;;4914731;29;20139;-66
2023/12/11 03:03:42;;;;;;;1.08;0.30;;;9.20;99.90;;;;;;4914712;29;20047;-64
2023/12/11 03:06:20;;;;;;;0.00;0.00;;;9.10;99.90;;;;;;4913847;29;20054;-65
2023/12/11 03:08:46;;;;;;;0.40;0.10;;;9.10;99.90;;;;;;4914879;29;20042;-65
2023/12/11 03:11:11;;;;;;;2.78;0.15;;;9.00;99.90;;;;;;4914123;29;20032;-65
2023/12/11 03:13:37;;;;;;;0.45;0.20;;;8.90;99.90;;;;;;4915057;29;20063;-65
2023/12/11 03:16:03;;;;;;;0.93;0.30;;;8.80;99.90;;;;;;4913576;29;20083;-65
2023/12/11 03:18:28;;;;;;;0.50;0.43;;;8.70;99.90;;;;;;4913933;29;20088;-66
2023/12/11 03:20:54;;;;;;;1.77;0.40;;;8.70;99.90;;;;;;4913692;29;20116;-67
2023/12/11 03:23:19;;;;;;;1.60;0.30;;;8.60;99.90;;;;;;4914858;29;20040;-66
2023/12/11 03:25:45;;;;;;;0.90;0.20;;;8.60;99.90;;;;;;4914784;29;20099;-65
2023/12/11 03:28:11;;;;;;;0.95;0.28;;;8.50;99.90;;;;;;4913820;29;20358;-65
2023/12/11 03:30:36;;;;;;;0.90;0.17;;;8.50;99.90;;;;;;4914876;29;20550;-65
2023/12/11 03:33:02;;;;;;;0.68;0.30;;;8.40;99.90;;;;;;4913540;29;20028;-65
2023/12/11 03:35:28;;;;;;;0.73;0.13;;;8.40;99.90;;;;;;4915034;29;20043;-65
2023/12/11 03:37:53;;;;;;;2.13;0.32;;;8.30;99.90;;;;;;4913312;29;20123;-65
2023/12/11 03:40:19;;;;;;;0.43;0.40;;;8.30;99.90;;;;;;4914756;29;20036;-65
2023/12/11 03:42:44;;;;;;;0.20;0.10;;;8.30;99.90;;;;;;4913821;29;20114;-65
2023/12/11 03:45:10;;;;;;;0.30;0.10;;;8.30;99.90;;;;;;4913807;29;20582;-65
2023/12/11 03:47:36;;;;;;;0.20;0.20;;;8.30;99.90;;;;;;4914307;29;20040;-65
2023/12/11 03:50:01;;;;;;;1.08;0.30;;;8.20;99.90;;;;;;4913550;29;20028;-65
2023/12/11 03:52:27;;;;;;;0.82;0.40;;;8.30;99.90;;;;;;4914150;29;20470;-65
2023/12/11 03:54:52;;;;;;;0.75;0.50;;;8.20;99.90;;;;;;4913265;29;20080;-65
2023/12/11 03:57:18;;;;;;;1.20;0.45;;;8.20;99.90;;;;;;4914164;29;20130;-65
2023/12/11 03:59:44;;;;;;;0.65;0.28;;;8.20;99.90;;;;;;4914332;29;20031;-65
2023/12/11 04:02:09;;;;;;;2.20;0.20;;;8.20;99.90;;;;;;4912983;29;20031;-66
2023/12/11 04:04:35;;;;;;;2.45;0.30;;;8.20;99.90;;;;;;4913978;29;20036;-66
2023/12/11 04:07:01;;;;;;;0.45;0.10;;;8.20;99.90;;;;;;4913258;29;20042;-65
2023/12/11 04:09:27;;;;;;;1.95;0.68;;;8.30;99.90;;;;;;4914738;29;20080;-65
2023/12/11 04:11:52;;;;;;;0.52;0.28;;;8.30;99.90;;;;;;4913268;29;20430;-65
2023/12/11 04:14:18;;;;;;;1.02;0.10;;;8.30;99.90;;;;;;4914175;29;20119;-65
2023/12/11 04:16:44;;;;;;;0.45;0.45;;;8.30;99.90;;;;;;4913570;29;20099;-65
2023/12/11 04:19:12;;;;;;;0.45;0.10;;;8.30;99.90;;;;;;4912931;29;20578;-65
2023/12/11 04:21:38;;;;;;;0.82;0.10;;;8.30;99.90;;;;;;4913935;29;20132;-65
2023/12/11 04:24:04;;;;;;;0.75;0.10;;;8.30;99.90;;;;;;4913396;29;20119;-66
2023/12/11 04:26:29;;;;;;;2.63;0.47;;;8.40;99.90;;;;;;4913749;29;20064;-66
2023/12/11 04:28:55;;;;;;;0.45;0.20;;;8.40;99.90;;;;;;4913462;29;20029;-64
2023/12/11 04:31:23;;;;;;;0.30;0.20;;;8.50;99.90;;;;;;4913525;29;20039;-65
2023/12/11 04:33:51;;;;;;;0.38;0.17;;;8.60;99.90;;;;;;4913794;29;20040;-66
2023/12/11 04:36:17;;;;;;;0.77;0.20;;;8.70;99.90;;;;;;4913520;29;20099;-65
2023/12/11 04:38:43;;;;;;;0.75;0.20;;;8.80;99.90;;;;;;4913403;29;20135;-65
2023/12/11 04:41:08;;;;;;;1.20;0.15;;;8.80;99.90;;;;;;4912784;29;20477;-65
2023/12/11 04:43:34;;;;;;;0.93;0.20;;;8.80;99.90;;;;;;4913744;29;20486;-65
2023/12/11 04:46:00;;;;;;;0.60;0.25;;;8.80;99.90;;;;;;4913277;29;20028;-65
2023/12/11 04:48:26;;;;;;;0.20;0.20;;;8.80;99.90;;;;;;4917726;29;20036;-65
2023/12/11 04:50:51;;;;;;;0.13;0.13;;;8.90;99.90;;;;;;4916320;29;20035;-66
2023/12/11 04:53:17;;;;;;;2.75;0.20;;;9.00;99.90;;;;;;4917321;29;20072;-65
2023/12/11 04:55:42;;;;;;;0.45;0.20;;;9.00;99.90;;;;;;4917551;29;20381;-65
2023/12/11 04:58:08;;;;;;;0.73;0.30;;;8.90;99.90;;;;;;4916087;29;20033;-66
2023/12/11 05:00:34;;;;;;;0.25;0.20;;;9.00;99.90;;;;;;4917398;29;20099;-66
2023/12/11 05:02:59;;;;;;;1.15;0.20;;;9.00;99.90;;;;;;4916547;29;20149;-64
2023/12/11 05:05:25;;;;;;;0.95;0.30;;;8.90;99.90;;;;;;4917320;29;20024;-65
2023/12/11 05:07:50;;;;;;;1.00;0.30;;;9.00;99.90;;;;;;4916079;29;20025;-66
2023/12/11 05:10:16;;;;;;;0.43;0.20;;;9.00;99.90;;;;;;4916919;29;20335;-66
2023/12/11 05:12:42;;;;;;;1.45;0.20;;;8.90;99.90;;;;;;4916896;29;20055;-65
2023/12/11 05:15:08;;;;;;;1.20;0.10;;;9.00;99.90;;;;;;4916672;29;20115;-64
2023/12/11 05:17:34;;;;;;;0.30;0.20;;;9.00;99.90;;;;;;4916280;29;20036;-64
2023/12/11 05:19:59;;;;;;;1.75;0.30;;;9.00;99.90;;;;;;4916228;29;20091;-65
2023/12/11 05:22:25;;;;;;;1.80;0.20;;;8.90;99.90;;;;;;4916946;29;20434;-65
2023/12/11 05:24:51;;;;;;;1.92;0.30;;;8.90;99.90;;;;;;4916188;29;20051;-66
2023/12/11 05:27:16;;;;;;;1.25;0.25;;;8.80;99.90;;;;;;4916269;29;20401;-66
2023/12/11 05:29:42;;;;;;;1.08;0.30;;;8.90;99.90;;;;;;4916787;29;20060;-66
2023/12/11 05:32:10;;;;;;;3.72;0.50;;;8.90;99.90;;;;;;4915736;29;20041;-66
2023/12/11 05:34:36;;;;;;;1.00;0.45;;;8.80;99.90;;;;;;4916299;29;20051;-65
2023/12/11 05:37:01;;;;;;;0.40;0.30;;;8.80;99.90;;;;;;4897996;29;20039;-65
2023/12/11 05:39:27;;;;;;;0.13;0.13;;;8.70;99.90;;;;;;4916014;29;20095;-65
2023/12/11 05:41:53;;;;;;;1.95;0.30;;;8.70;99.90;;;;;;4914693;29;20118;-66
2023/12/11 05:44:18;;;;;;;0.55;0.20;;;8.70;99.90;;;;;;4916142;29;20047;-65
2023/12/11 05:46:44;;;;;;;0.75;0.40;;;8.70;99.90;;;;;;4915753;29;20371;-65
2023/12/11 05:49:10;;;;;;;1.92;0.20;;;8.80;99.90;;;;;;4915515;29;20055;-65
2023/12/11 05:51:36;;;;;;;0.28;0.20;;;8.70;99.90;;;;;;4915651;29;20043;-65
2023/12/11 05:54:02;;;;;;;0.52;0.47;;;8.70;99.90;;;;;;4915088;29;20485;-65
2023/12/11 05:56:27;;;;;;;1.60;0.30;;;8.70;99.90;;;;;;4915072;29;20028;-65
2023/12/11 05:58:54;;;;;;;1.27;0.40;;;8.70;99.90;;;;;;4913794;29;20495;-66
2023/12/11 06:01:20;;;;;;;0.60;0.35;;;8.70;99.90;;;;;;4915204;29;20362;-65
2023/12/11 06:03:45;;;;;;;2.03;0.28;;;8.80;99.90;;;;;;4916054;29;20036;-65
2023/12/11 06:06:17;;;;;;;2.30;0.55;;;8.80;99.90;;;;;;4914805;29;20028;-64
2023/12/11 06:08:44;;;;;;;0.57;0.32;;;8.90;99.90;;;;;;4915868;29;20042;-64
2023/12/11 06:11:10;;;;;;;0.93;0.38;;;8.90;99.90;;;;;;4914897;29;20048;-65
2023/12/11 06:13:36;;;;;;;1.52;0.50;;;8.90;99.90;;;;;;4915841;29;20044;-67
2023/12/11 06:16:02;;;;;;;0.82;0.30;;;8.80;99.90;;;;;;4914886;29;20367;-66
2023/12/11 06:18:28;;;;;;;2.83;0.28;;;8.80;99.90;;;;;;4915180;29;20107;-65
2023/12/11 06:20:53;;;;;;;1.52;0.40;;;8.80;99.90;;;;;;4915019;29;20107;-69
2023/12/11 06:23:22;;;;;;;1.85;0.32;;;8.80;99.90;;;;;;4914082;29;20543;-67
2023/12/11 06:25:47;;;;;;;1.30;0.30;;;8.90;99.90;;;;;;4912238;29;20032;-65
2023/12/11 06:28:13;;;;;;;0.88;0.20;;;9.10;99.90;;;;;;4914455;29;20020;-66
2023/12/11 06:30:38;;;;;;;0.98;0.35;;;9.20;99.90;;;;;;4915737;29;20791;-64
2023/12/11 06:33:05;;;;;;;1.90;0.35;;;9.20;99.90;;;;;;4914409;29;20474;-66
2023/12/11 06:35:30;;;;;;;0.52;0.30;;;9.20;99.90;;;;;;4915920;29;20144;-65
2023/12/11 06:37:56;;;;;;;3.70;0.40;;;9.10;99.90;;;;;;4913838;29;20127;-67
2023/12/11 06:40:21;;;;;;;0.77;0.22;;;9.20;99.90;;;;;;4915221;29;20028;-70
2023/12/11 06:42:47;;;;;;;1.13;0.40;;;9.20;99.90;;;;;;4914833;29;20016;-65
2023/12/11 06:45:13;;;;;;;0.47;0.30;;;9.30;99.90;;;;;;4914658;29;20043;-62
2023/12/11 06:47:38;;;;;;;1.33;0.45;;;9.30;99.90;;;;;;4914794;29;20104;-62
2023/12/11 06:50:04;;;;;;;1.27;0.45;;;9.20;99.90;;;;;;4914552;29;20036;-63
2023/12/11 06:52:30;;;;;;;0.30;0.30;;;9.30;99.90;;;;;;4914740;29;20031;-61
2023/12/11 06:54:55;;;;;;;0.32;0.20;;;9.20;99.90;;;;;;4914129;29;20032;-62
2023/12/11 06:57:21;;;;;;;1.00;0.30;;;9.20;99.90;;;;;;4910063;29;20127;-63
2023/12/11 06:59:47;;;;;;;0.20;0.15;;;9.10;99.90;;;;;;4914629;29;20119;-62
2023/12/11 07:02:13;;;;;;;2.13;0.40;;;9.10;99.90;;;;;;4914619;29;20164;-63
2023/12/11 07:04:42;;;;;;;2.15;0.60;;;9.10;99.90;;;;;;4914480;29;20064;-62
2023/12/11 07:07:07;;;;;;;2.08;0.60;;;9.10;99.90;;;;;;4913418;29;20098;-63
2023/12/11 07:09:33;;;;;;;2.60;0.73;;;9.10;99.90;;;;;;4914492;29;20502;-63
2023/12/11 07:11:59;;;;;;;3.08;0.90;;;9.00;99.90;;;;;;4913614;29;20036;-62
2023/12/11 07:14:24;;;;;;;1.33;0.45;;;9.00;99.90;;;;;;4914875;29;20043;-62
2023/12/11 07:16:51;;;;;;;1.73;0.50;;;9.00;99.90;;;;;;4913398;29;20031;-64
2023/12/11 07:19:17;;;;;;;1.90;0.75;;;8.90;99.90;;;;;;4914330;29;20043;-63
2023/12/11 07:21:43;;;;;;;2.33;0.70;;;8.90;99.90;;;;;;4913147;29;20028;-62
2023/12/11 07:24:09;;;;;;;2.08;0.47;;;8.90;99.90;;;;;;4913477;29;20044;-63
2023/12/11 07:26:35;;;;;;;5.40;0.98;;;8.90;99.90;;;;;;4914066;29;20084;-62
2023/12/11 07:29:00;;;;;;;1.63;0.43;;;8.90;99.90;;;;;;4914053;29;20024;-63
2023/12/11 07:31:26;;;;;;;2.22;0.55;;;8.90;99.90;;;;;;4914457;29;20462;-63
2023/12/11 07:33:53;;;;;;;1.52;0.60;;;8.90;99.90;;;;;;4913918;29;20028;-63
2023/12/11 07:36:19;;;;;;;0.47;0.47;;;9.00;99.90;;;;;;4914597;29;20040;-63
2023/12/11 07:38:45;;;;;;;2.55;0.52;;;8.90;99.90;;;;;;4914299;29;20052;-62
2023/12/11 07:41:11;;;;;;;0.82;0.40;;;8.90;99.90;;;;;;4913368;29;20484;-62
2023/12/11 07:43:37;;;;;;;1.42;0.50;;;8.90;99.90;;;;;;4908084;29;20040;-62
2023/12/11 07:46:03;;;;;;;2.40;0.60;;;8.90;99.90;;;;;;4912543;29;20090;-62
2023/12/11 07:48:28;;;;;;;3.47;0.70;;;8.90;99.90;;;;;;4914270;29;20036;-62
2023/12/11 07:50:54;;;;;;;2.00;0.50;;;9.00;99.90;;;;;;4912914;29;20032;-64
2023/12/11 07:53:20;;;;;;;0.82;0.60;;;9.00;99.90;;;;;;4913947;29;20047;-63
2023/12/11 07:55:45;;;;;;;2.22;0.50;;;9.00;99.90;;;;;;4906709;29;20064;-62
2023/12/11 07:58:13;;;;;;;2.40;0.45;;;9.10;99.90;;;;;;4906256;29;20631;-62
2023/12/11 08:00:39;;;;;;;1.88;0.57;;;9.00;99.90;;;;;;4911746;29;20115;-62
2023/12/11 08:03:06;;;;;;;1.80;0.50;;;9.10;99.90;;;;;;4912706;29;20131;-62
2023/12/11 08:05:31;;;;;;;1.25;0.60;;;9.10;99.90;;;;;;4914180;29;20112;-62
2023/12/11 08:07:57;;;;;;;1.05;0.55;;;9.00;99.90;;;;;;4912946;29;20111;-62
2023/12/11 08:10:23;;;;;;;3.88;0.80;;;9.00;99.90;;;;;;4913874;29;20036;-61
2023/12/11 08:12:51;;;;;;;2.70;0.70;;;9.10;99.90;;;;;;4913345;29;20036;-63
2023/12/11 08:15:16;;;;;;;1.02;0.60;;;9.10;99.90;;;;;;4912141;29;20032;-64
2023/12/11 08:17:42;;;;;;;2.47;0.70;;;9.20;99.90;;;;;;4913442;29;20032;-62
2023/12/11 08:20:09;;;;;;;0.98;0.43;;;9.30;99.90;;;;;;4912922;29;20044;-62
2023/12/11 08:22:35;;;;;;;1.50;0.50;;;9.30;99.90;;;;;;4916175;29;20061;-63
2023/12/11 08:25:01;;;;;;;2.33;0.68;;;9.50;99.90;;;;;;4917082;29;20059;-63
2023/12/11 08:27:26;;;;;;;2.65;0.63;;;9.60;99.90;;;;;;4913779;29;20492;-62
2023/12/11 08:29:52;;;;;;;2.25;0.70;;;9.60;99.90;;;;;;4907896;29;20033;-64
2023/12/11 08:32:17;;;;;;;1.30;0.73;;;9.70;99.90;;;;;;4911983;29;20504;-63
2023/12/11 08:34:43;;;;;;;2.35;0.93;;;9.70;99.90;;;;;;4903330;29;20064;-63
2023/12/11 08:37:09;;;;;;;1.42;0.70;;;9.80;99.90;;;;;;4916526;29;20123;-63
2023/12/11 08:39:34;;;;;;;0.93;0.68;;;9.80;99.90;;;;;;4915966;29;20063;-62
2023/12/11 08:42:00;;;;;;;4.32;1.02;;;9.80;99.90;;;;;;4916272;29;20032;-63
2023/12/11 08:44:26;;;;;;;2.10;0.80;;;9.90;99.90;;;;;;4911951;29;20115;-62
2023/12/11 08:46:51;;;;;;;1.58;0.63;;;9.90;99.90;;;;;;4911612;29;20028;-64
2023/12/11 08:49:17;;;;;;;2.45;0.70;;;9.90;99.90;;;;;;4925402;29;20489;-62
2023/12/11 08:51:43;;;;;;;0.80;0.73;;;9.90;99.90;;;;;;4908300;29;20028;-63
2023/12/11 08:54:08;;;;;;;1.52;0.60;;;9.80;99.90;;;;;;4903743;29;20123;-62
2023/12/11 08:56:34;;;;;;;1.92;0.50;;;9.80;99.90;;;;;;4896383;29;20032;-62
2023/12/11 08:59:00;;;;;;;2.97;0.90;;;9.80;99.90;;;;;;4898276;29;20048;-62
2023/12/11 09:01:26;;;;;;;2.67;0.90;;;9.80;99.90;;;;;;4900120;29;20033;-62
2023/12/11 09:03:51;;;;;;;1.60;0.70;;;9.70;99.90;;;;;;4916054;29;20482;-65
2023/12/11 09:06:17;;;;;;;2.13;0.52;;;9.70;99.90;;;;;;4916749;29;21363;-62
2023/12/11 09:08:43;;;;;;;0.45;0.40;;;9.80;99.90;;;;;;4917908;29;20032;-62
2023/12/11 09:11:09;;;;;;;1.83;0.50;;;9.90;99.90;;;;;;4915608;29;20064;-62
2023/12/11 09:13:35;;;;;;;1.60;0.60;;;10.00;99.90;;;;;;4917850;29;20028;-63
2023/12/11 09:16:01;;;;;;;2.85;0.60;;;10.10;99.90;;;;;;4916300;29;20103;-62
2023/12/11 09:18:26;;;;;;;2.90;0.73;;;10.20;99.90;;;;;;4917603;29;20114;-62
2023/12/11 09:20:52;;;;;;;2.67;0.60;;;10.30;99.90;;;;;;4916205;29;20517;-64
2023/12/11 09:23:18;;;;;;;4.43;0.80;;;10.60;99.90;;;;;;4917091;29;20036;-62
2023/12/11 09:25:43;;;;;;;2.25;0.82;;;10.60;99.90;;;;;;4915651;29;20032;-62
2023/12/11 09:28:09;;;;;;;2.58;0.45;;;10.80;99.90;;;;;;4916076;29;20029;-62
2023/12/11 09:30:35;;;;;;;2.35;0.82;;;10.90;99.90;;;;;;4916937;29;20035;-62
2023/12/11 09:33:01;;;;;;;2.78;0.40;;;10.90;99.90;;;;;;4915379;29;20040;-63
2023/12/11 09:35:27;;;;;;;3.30;0.50;;;11.50;99.90;;;;;;4917451;29;20032;-63
2023/12/11 09:37:53;;;;;;;5.20;0.70;;;11.00;99.90;;;;;;4910202;29;20116;-65
2023/12/11 09:40:21;;;;;;;2.40;0.63;;;11.20;99.90;;;;;;4897625;29;20463;-63
2023/12/11 09:42:51;;;;;;;1.90;1.00;;;;;;;;;;4897698;29;20020;-63
2023/12/11 09:45:19;;;;;;;4.97;0.90;;;11.10;99.90;;;;;;4906607;29;20040;-63
2023/12/11 09:47:54;;;;;;;5.22;1.60;;;11.30;99.90;;;;;;4916558;29;20045;-63
2023/12/11 09:50:20;;;;;;;3.05;0.70;;;11.30;99.90;;;;;;4916624;29;20115;-64
2023/12/11 09:52:46;;;;;;;3.05;1.27;;;11.30;99.90;;;;;;4916652;29;20095;-64
2023/12/11 09:55:12;;;;;;;3.75;0.73;;;11.30;99.90;;;;;;4912872;29;20044;-64
2023/12/11 09:57:39;;;;;;;2.08;0.70;;;11.40;99.90;;;;;;4896306;29;20085;-64
2023/12/11 10:00:07;;;;;;;1.92;0.60;;;11.40;99.90;;;;;;4915421;29;20383;-64
2023/12/11 10:02:33;;;;;;;0.93;0.43;;;11.50;99.90;;;;;;4916087;29;20080;-63
2023/12/11 10:05:09;;;;;;;1.45;0.70;;;11.50;99.90;;;;;;4916010;29;20048;-64
2023/12/11 10:07:41;;;;;;;4.20;0.80;;;11.60;99.90;;;;;;4916377;29;20067;-64
2023/12/11 10:10:36;;;;;;;3.50;0.60;;;11.50;99.90;;;;;;4915565;29;20083;-64
2023/12/11 10:13:02;;;;;;;1.48;0.70;;;11.70;99.90;;;;;;4912405;29;20040;-63
2023/12/11 10:15:30;;;;;;;2.65;0.60;;;11.80;99.90;;;;;;4914948;29;20111;-63
2023/12/11 10:18:03;;;;;;;1.70;0.50;;;12.00;99.90;;;;;;4915491;29;20419;-64
2023/12/11 10:20:29;;;;;;;4.35;0.70;;;12.20;99.90;;;;;;4916076;29;20488;-63
2023/12/11 10:22:55;;;;;;;4.60;0.90;;;12.30;99.90;;;;;;4915272;29;20035;-64
2023/12/11 10:25:29;;;;;;;5.13;0.55;;;;;;;;;;4916389;29;20107;-64
2023/12/11 10:28:13;;;;;;;4.95;0.65;;;;;;;;;;4912674;29;20136;-64
2023/12/11 10:30:49;;;;;;;2.08;0.70;;;12.90;99.90;;;;;;4915500;29;20382;-63
2023/12/11 10:33:16;;;;;;;3.45;0.73;;;13.00;99.90;;;;;;4907061;29;20394;-63
2023/12/11 10:35:42;;;;;;;1.55;0.52;;;13.30;99.90;;;;;;4898494;29;20035;-63
2023/12/11 10:38:07;;;;;;;6.07;0.80;;;13.20;99.90;;;;;;4914679;29;20056;-63
2023/12/11 10:40:41;;;;;;;1.65;0.52;;;13.20;99.90;;;;;;4916445;29;20458;-63
2023/12/11 10:43:07;;;;;;;3.42;0.63;;;13.30;99.90;;;;;;4914783;29;20052;-63
2023/12/11 10:45:33;;;;;;;3.13;0.85;;;13.30;99.90;;;;;;4915106;29;20032;-63
2023/12/11 10:48:00;;;;;;;4.78;0.77;;;13.30;99.90;;;;;;4912924;29;20067;-63
2023/12/11 10:50:27;;;;;;;3.40;0.90;;;13.30;99.90;;;;;;4916155;29;20032;-62
2023/12/11 10:52:53;;;;;;;2.50;0.73;;;13.30;99.90;;;;;;4914619;29;20092;-66
2023/12/11 10:55:19;;;;;;;3.85;0.90;;;13.20;99.90;;;;;;4911779;29;20429;-65
2023/12/11 10:57:46;;;;;;;3.63;0.80;;;13.00;99.90;;;;;;4895718;29;20041;-64
2023/12/11 11:00:14;;;;;;;5.43;1.00;;;12.90;99.90;;;;;;4896350;29;20219;-63
2023/12/11 11:02:44;;;;;;;3.33;0.70;;;12.80;99.90;;;;;;4896280;29;20359;-64
2023/12/11 11:05:11;;;;;;;4.60;1.10;;;12.70;99.90;;;;;;4912868;29;20048;-64
2023/12/11 11:07:44;;;;;;;2.20;1.05;;;12.70;99.90;;;;;;4915422;29;20062;-63
2023/12/11 11:10:20;;;;;;;3.25;1.02;;;12.70;99.90;;;;;;4914979;29;20251;-63
2023/12/11 11:13:02;;;;;;;2.13;0.40;;;12.60;99.90;;;;;;4915057;29;20426;-63
2023/12/11 11:15:27;;;;;;;2.10;0.73;;;12.70;99.90;;;;;;4915538;29;20032;-63
2023/12/11 11:17:59;;;;;;;4.65;0.82;;;12.70;99.90;;;;;;4914035;29;20096;-63
2023/12/11 11:20:26;;;;;;;4.15;0.70;;;12.70;99.90;;;;;;4915588;29;20096;-64
2023/12/11 11:23:12;;;;;;;3.60;0.70;;;12.80;99.90;;;;;;4914037;29;20512;-66
2023/12/11 11:25:39;;;;;;;4.55;1.30;;;12.70;99.90;;;;;;4917898;29;20051;-64
2023/12/11 11:28:05;;;;;;;2.00;0.70;;;12.70;99.90;;;;;;4918803;29;20120;-64
2023/12/11 11:30:44;;;;;;;3.47;1.02;;;12.70;99.90;;;;;;4918722;29;20052;-64
2023/12/11 11:33:09;;;;;;;4.90;1.30;;;12.70;99.90;;;;;;4911103;29;20048;-65
2023/12/11 11:35:52;;;;;;;5.60;0.88;;;12.80;99.90;;;;;;4898575;29;20037;-65
2023/12/11 11:38:19;;;;;;;4.30;0.90;;;12.90;99.90;;;;;;4895592;29;20075;-64
2023/12/11 11:40:47;;;;;;;4.75;0.93;;;13.00;99.90;;;;;;4896815;29;20033;-64
2023/12/11 11:43:13;;;;;;;4.00;1.00;;;13.00;99.90;;;;;;4894727;29;20119;-64
2023/12/11 11:45:39;;;;;;;3.85;0.55;;;13.00;99.90;;;;;;4912387;29;20550;-61
2023/12/11 11:48:05;;;;;;;4.82;1.20;;;13.00;99.90;;;;;;4913868;29;20040;-63
2023/12/11 11:50:31;;;;;;;4.65;1.38;;;13.00;99.90;;;;;;4897978;29;20415;-63
2023/12/11 11:53:11;;;;;;;7.30;1.90;;;12.90;99.90;;;;;;4913710;29;20051;-63
2023/12/11 11:55:39;;;;;;;6.05;1.08;;;12.80;99.90;;;;;;4908408;29;20028;-63
2023/12/11 11:58:15;;;;;;;7.90;1.60;;;12.70;99.90;;;;;;4894730;29;20044;-64
2023/12/11 12:00:41;;;;;;;6.68;1.40;;;12.70;99.90;;;;;;4909832;29;20159;-64
2023/12/11 12:03:08;;;;;;;5.97;1.20;;;12.60;99.90;;;;;;4911696;29;20032;-62
2023/12/11 12:05:38;;;;;;;3.88;1.20;;;12.50;99.90;;;;;;4913383;29;20036;-63
2023/12/11 12:08:08;;;;;;;7.07;1.42;;;12.50;99.90;;;;;;4913658;29;20111;-64
2023/12/11 12:10:34;;;;;;;5.22;1.20;;;12.40;99.90;;;;;;4914946;29;20020;-66
2023/12/11 12:13:00;;;;;;;8.70;1.70;;;12.30;99.90;;;;;;4913162;29;20382;-66
2023/12/11 12:15:27;;;;;;;4.82;1.17;;;12.20;99.90;;;;;;4914716;29;20039;-66
2023/12/11 12:17:53;;;;;;;6.38;1.58;;;12.20;99.90;;;;;;4912743;29;20066;-68
2023/12/11 12:20:19;;;;;;;6.43;1.48;;;12.20;99.90;;;;;;4894843;29;20060;-65
2023/12/11 12:23:07;;;;;;;8.05;1.45;;;12.10;99.90;;;;;;4895324;29;20092;-66
2023/12/11 12:25:34;;;;;;;9.77;1.67;;;12.00;99.90;;;;;;4896107;29;20040;-66
2023/12/11 12:28:13;;;;;;;9.02;1.80;;;12.10;99.90;;;;;;4893291;29;20028;-68
2023/12/11 12:30:38;;;;;;;7.72;1.38;;;12.30;99.90;;;;;;4913815;29;20096;-66
2023/12/11 12:33:08;;;;;;;9.73;1.67;;;12.40;99.90;;;;;;4905763;29;20382;-66
2023/12/11 12:35:35;;;;;;;7.03;1.73;;;12.40;99.90;;;;;;4903549;29;20054;-64
2023/12/11 12:38:02;;;;;;;7.57;1.63;;;12.40;99.90;;;;;;4911135;29;20048;-64
2023/12/11 12:40:32;;;;;;;10.00;1.30;;;12.50;99.90;;;;;;4914760;29;20024;-64
2023/12/11 12:42:57;;;;;;;;;;;12.60;99.90;;;;;;4913260;29;20032;-65
2023/12/11 12:45:34;;;;;;;8.30;1.48;;;12.60;99.90;;;;;;4906282;29;19915;-67
2023/12/11 12:48:00;;;;;;;7.13;1.20;;;12.70;99.90;;;;;;4894482;29;20435;-65
2023/12/11 12:50:27;;;;;;;6.32;1.60;;;12.70;99.90;;;;;;4895838;29;20066;-66
2023/12/11 12:53:17;;;;;;;5.90;1.50;;;12.80;99.90;;;;;;4904482;29;20490;-68